Pacific Beach, Washington
Current Conditions -  °F | °C
As of 6:40 PM on Saturday 25 Oct 2014 (Local Time) from KHQM Reporting Station
Light Rain Light Rain  
Wind Chill: 54°   Ceiling: 3200
Heat Index: 54°   Visibility: 6mi
Dew Point: 48°   Wind: 30mph
Humidity: 80%   Direction: 260°W
Pressure: 29.44"   Gusts: 39mph
Location:  47.21°N, 124.2°W
Report Text: KHQM 260140Z AUTO 26026G34KT 6SM -RA SCT024 BKN032 OVC055 12/09 A2944 RMK AO2 PK WND 26039/0107 PRESRR P0002 T01220089
Loading
Personal Weather Stations






























Interactive Weather Map
Tropical Storm Tracking
New forecast layout! Learn more

10-Day Weather Forecast

Advertisements
Track Severe Weather on mobile